Strona główna
METAR-TAF:

METAR-TAF

Lotnisko :

Adirondack Regional Airport

Saranac Lake, Nowy Jork, Stany Zjednoczone

Szerokość geograficzna: 44-23-35N, Długość geograficzna: 074-12-10W, wysokość: 507 m

Aktualna obserwacja pogody

Raport powstał 40 minut temu, godzina 16:51 UTC
Wiatr 7 kt od północny zachód
Temperatura 24°C
Wilgotność 36%
Ciśnienie 1012 hPa
Widzialność: 16.1 km
bezchmurnie

METAR: KSLK 241651Z AUTO 31007KT 10SM CLR 24/08 A2988 RMK AO2 SLP113 T02440078

czas: 13:31 (17:31 UTC)

Prognoza

Raport powstał 6 godziny i 6 minut temu, godzina 11:25 UTC
Prognoza ważna od 24 godzina 12 UTC do 25 godzina 12 UTC
Wiatr 4 kt z kierunków zmiennych
Widzialność: 10 km
Mało chmury na wysokości 25000 ft
Od 25 godzina 0900 UTC
Wiatr 4 kt z kierunków zmiennych
Widzialność: 10 km
Zachmurzenie całkowite na wysokości 4000 ft
przelotny w pobliże

TAF: KSLK 241125Z 2412/2512 VRB04KT P6SM FEW250 FM250900 VRB04KT P6SM VCSH OVC040

Obserwacja i prognoza pogody dla ponad 4000 lotnisk (raport METAR i TAF).

Dostępne stacje oznaczono żółtymi i czerwonymi punktami na mapie.

Najedź kursorem aby zobaczyć nazwę stacji.

Kliknij aby zobaczyć obserwacje i prognozy pogody.

Aby zmienić mapę: kliknij na zielony przycisk z czarnym krzyżykiem, aby powiększyć; na zielony przycisk z myślnikiem, aby pomniejszyć; na zielone strzałki, aby przejść do map sąsiednich.


METAR-TAF: